sensor_id;sensor_type;location;lat;lon;timestamp;pressure;altitude;pressure_sealevel;temperature;humidity
11017;BME280;54687;50.800;6.772;2023-03-20T00:00:55;61057.28;;;-144.06;60.07
11017;BME280;54687;50.800;6.772;2023-03-20T00:03:23;61076.13;;;-144.06;60.01
11017;BME280;54687;50.800;6.772;2023-03-20T00:05:50;61042.59;;;-144.06;59.96
11017;BME280;54687;50.800;6.772;2023-03-20T00:08:17;61055.19;;;-144.06;60.10
11017;BME280;54687;50.800;6.772;2023-03-20T00:10:45;61065.66;;;-144.06;60.06
11017;BME280;54687;50.800;6.772;2023-03-20T00:13:17;61061.47;;;-144.06;60.04
11017;BME280;54687;50.800;6.772;2023-03-20T00:15:47;61095.00;;;-144.06;60.08
11017;BME280;54687;50.800;6.772;2023-03-20T00:18:15;61092.91;;;-144.06;59.99
11017;BME280;54687;50.800;6.772;2023-03-20T00:20:45;61059.38;;;-144.06;59.84
11017;BME280;54687;50.800;6.772;2023-03-20T00:23:13;61059.38;;;-144.06;59.70
11017;BME280;54687;50.800;6.772;2023-03-20T00:25:41;61027.94;;;-144.06;59.74
11017;BME280;54687;50.800;6.772;2023-03-20T00:28:28;61071.94;;;-144.06;59.39
11017;BME280;54687;50.800;6.772;2023-03-20T00:30:57;61063.56;;;-144.06;59.38
11017;BME280;54687;50.800;6.772;2023-03-20T00:33:23;61055.19;;;-144.06;59.21
11017;BME280;54687;50.800;6.772;2023-03-20T00:35:52;61105.50;;;-144.06;58.59
11017;BME280;54687;50.800;6.772;2023-03-20T00:38:19;61080.34;;;-144.06;58.15
11017;BME280;54687;50.800;6.772;2023-03-20T00:40:45;61101.28;;;-144.06;58.19
11017;BME280;54687;50.800;6.772;2023-03-20T00:43:12;61055.19;;;-144.06;58.20
11017;BME280;54687;50.800;6.772;2023-03-20T00:45:41;61055.19;;;-144.06;58.23
11017;BME280;54687;50.800;6.772;2023-03-20T00:48:12;61055.19;;;-144.06;58.11
11017;BME280;54687;50.800;6.772;2023-03-20T00:50:39;61017.44;;;-144.06;58.07
11017;BME280;54687;50.800;6.772;2023-03-20T00:53:09;61067.75;;;-144.06;58.12
11017;BME280;54687;50.800;6.772;2023-03-20T00:55:38;61046.78;;;-144.06;57.95
11017;BME280;54687;50.800;6.772;2023-03-20T00:58:06;61086.63;;;-144.06;58.25
11017;BME280;54687;50.800;6.772;2023-03-20T01:00:36;61071.94;;;-144.06;58.06
11017;BME280;54687;50.800;6.772;2023-03-20T01:03:11;61059.38;;;-144.06;57.96
11017;BME280;54687;50.800;6.772;2023-03-20T01:05:38;61059.38;;;-144.06;58.03
11017;BME280;54687;50.800;6.772;2023-03-20T01:08:11;61040.50;;;-144.06;57.89
11017;BME280;54687;50.800;6.772;2023-03-20T01:10:39;61063.56;;;-144.06;57.98
11017;BME280;54687;50.800;6.772;2023-03-20T01:13:16;61036.31;;;-144.06;57.82
11017;BME280;54687;50.800;6.772;2023-03-20T01:15:44;61046.78;;;-144.06;57.88
11017;BME280;54687;50.800;6.772;2023-03-20T01:18:13;61017.44;;;-144.06;57.78
11017;BME280;54687;50.800;6.772;2023-03-20T01:20:41;61036.31;;;-144.06;57.57
11017;BME280;54687;50.800;6.772;2023-03-20T01:23:08;61101.28;;;-144.06;57.74
11017;BME280;54687;50.800;6.772;2023-03-20T01:25:36;61046.78;;;-144.06;57.66
11017;BME280;54687;50.800;6.772;2023-03-20T01:28:13;61107.59;;;-144.06;57.74
11017;BME280;54687;50.800;6.772;2023-03-20T01:30:40;61071.94;;;-144.06;57.78
11017;BME280;54687;50.800;6.772;2023-03-20T01:33:13;61061.47;;;-144.06;57.58
11017;BME280;54687;50.800;6.772;2023-03-20T01:35:39;61061.47;;;-144.06;57.59
11017;BME280;54687;50.800;6.772;2023-03-20T01:38:11;61059.38;;;-144.06;57.65
11017;BME280;54687;50.800;6.772;2023-03-20T01:40:48;61067.75;;;-144.06;57.71
11017;BME280;54687;50.800;6.772;2023-03-20T01:43:18;61067.75;;;-144.06;57.66
11017;BME280;54687;50.800;6.772;2023-03-20T01:45:53;61051.00;;;-144.06;57.86
11017;BME280;54687;50.800;6.772;2023-03-20T01:48:23;61036.31;;;-144.06;57.66
11017;BME280;54687;50.800;6.772;2023-03-20T01:50:51;61084.53;;;-144.06;57.91
11017;BME280;54687;50.800;6.772;2023-03-20T01:53:20;61051.00;;;-144.06;58.53
11017;BME280;54687;50.800;6.772;2023-03-20T01:55:52;61057.28;;;-144.06;58.54
11017;BME280;54687;50.800;6.772;2023-03-20T01:58:23;61063.56;;;-144.06;58.73
11017;BME280;54687;50.800;6.772;2023-03-20T02:00:51;61130.66;;;-144.06;59.29
11017;BME280;54687;50.800;6.772;2023-03-20T02:03:18;61048.88;;;-144.06;59.32
11017;BME280;54687;50.800;6.772;2023-03-20T02:05:45;61061.47;;;-144.06;59.28
11017;BME280;54687;50.800;6.772;2023-03-20T02:08:20;61105.50;;;-144.06;59.54
11017;BME280;54687;50.800;6.772;2023-03-20T02:10:48;61074.03;;;-144.06;59.42
11017;BME280;54687;50.800;6.772;2023-03-20T02:13:16;61080.34;;;-144.06;59.85
11017;BME280;54687;50.800;6.772;2023-03-20T02:16:00;61076.13;;;-144.06;59.47
11017;BME280;54687;50.800;6.772;2023-03-20T02:18:27;61092.91;;;-144.06;59.60
11017;BME280;54687;50.800;6.772;2023-03-20T02:24:19;61025.84;;;-144.06;59.42
11017;BME280;54687;50.800;6.772;2023-03-20T02:27:05;61078.25;;;-144.06;58.96
11017;BME280;54687;50.800;6.772;2023-03-20T02:30:05;61055.19;;;-144.06;58.85
11017;BME280;54687;50.800;6.772;2023-03-20T02:33:17;61080.34;;;-144.06;58.86
11017;BME280;54687;50.800;6.772;2023-03-20T02:36:18;61059.38;;;-144.06;59.02
11017;BME280;54687;50.800;6.772;2023-03-20T02:39:14;61067.75;;;-144.06;59.06
11017;BME280;54687;50.800;6.772;2023-03-20T02:41:51;61057.28;;;-144.06;58.94
11017;BME280;54687;50.800;6.772;2023-03-20T02:44:22;61097.09;;;-144.06;59.16
11017;BME280;54687;50.800;6.772;2023-03-20T02:46:55;61076.13;;;-144.06;59.43
11017;BME280;54687;50.800;6.772;2023-03-20T02:49:36;61053.09;;;-144.06;59.60
11017;BME280;54687;50.800;6.772;2023-03-20T02:52:14;61067.75;;;-144.06;59.76
11017;BME280;54687;50.800;6.772;2023-03-20T02:54:50;61069.84;;;-144.06;60.18
11017;BME280;54687;50.800;6.772;2023-03-20T02:57:22;61113.88;;;-144.06;60.16
11017;BME280;54687;50.800;6.772;2023-03-20T02:59:55;61076.13;;;-144.06;60.36
11017;BME280;54687;50.800;6.772;2023-03-20T03:02:28;61078.25;;;-144.06;60.47
11017;BME280;54687;50.800;6.772;2023-03-20T03:05:00;61088.72;;;-144.06;60.57
11017;BME280;54687;50.800;6.772;2023-03-20T03:07:31;61025.84;;;-144.06;60.36
11017;BME280;54687;50.800;6.772;2023-03-20T03:10:02;61051.00;;;-144.06;60.48
11017;BME280;54687;50.800;6.772;2023-03-20T03:12:34;61097.09;;;-144.06;60.09
11017;BME280;54687;50.800;6.772;2023-03-20T03:15:04;61088.72;;;-144.06;60.07
11017;BME280;54687;50.800;6.772;2023-03-20T03:17:34;61055.19;;;-144.06;59.87
11017;BME280;54687;50.800;6.772;2023-03-20T03:20:06;61069.84;;;-144.06;59.25
11017;BME280;54687;50.800;6.772;2023-03-20T03:22:34;61084.53;;;-144.06;59.21
11017;BME280;54687;50.800;6.772;2023-03-20T03:25:03;61088.72;;;-144.06;59.26
11017;BME280;54687;50.800;6.772;2023-03-20T03:27:35;61057.28;;;-144.06;58.79
11017;BME280;54687;50.800;6.772;2023-03-20T03:30:06;61080.34;;;-144.06;58.46
11017;BME280;54687;50.800;6.772;2023-03-20T03:32:45;61099.19;;;-144.06;58.62
11017;BME280;54687;50.800;6.772;2023-03-20T03:35:15;61103.38;;;-144.06;58.69
11017;BME280;54687;50.800;6.772;2023-03-20T03:37:48;61063.56;;;-144.06;58.64
11017;BME280;54687;50.800;6.772;2023-03-20T03:40:24;61059.38;;;-144.06;58.74
11017;BME280;54687;50.800;6.772;2023-03-20T03:42:55;61080.34;;;-144.06;58.81
11017;BME280;54687;50.800;6.772;2023-03-20T03:45:28;61107.59;;;-144.06;58.99
11017;BME280;54687;50.800;6.772;2023-03-20T03:48:01;61071.94;;;-144.06;59.23
11017;BME280;54687;50.800;6.772;2023-03-20T03:50:34;61071.94;;;-144.06;59.38
11017;BME280;54687;50.800;6.772;2023-03-20T03:53:06;61071.94;;;-144.06;59.77
11017;BME280;54687;50.800;6.772;2023-03-20T03:55:38;61088.72;;;-144.06;59.85
11017;BME280;54687;50.800;6.772;2023-03-20T03:58:10;61063.56;;;-144.06;60.25
11017;BME280;54687;50.800;6.772;2023-03-20T04:00:40;61057.28;;;-144.06;60.18
11017;BME280;54687;50.800;6.772;2023-03-20T04:03:09;61082.44;;;-144.06;60.26
11017;BME280;54687;50.800;6.772;2023-03-20T04:05:37;61097.09;;;-144.06;60.01
11017;BME280;54687;50.800;6.772;2023-03-20T04:08:06;61101.28;;;-144.06;60.08
11017;BME280;54687;50.800;6.772;2023-03-20T04:10:33;61126.44;;;-144.06;60.18
11017;BME280;54687;50.800;6.772;2023-03-20T04:13:01;61080.34;;;-144.06;60.03
11017;BME280;54687;50.800;6.772;2023-03-20T04:15:27;61105.50;;;-144.06;60.02
11017;BME280;54687;50.800;6.772;2023-03-20T04:17:54;61084.53;;;-144.06;59.99
11017;BME280;54687;50.800;6.772;2023-03-20T04:20:21;61076.13;;;-144.06;59.81
11017;BME280;54687;50.800;6.772;2023-03-20T04:22:48;61078.25;;;-144.06;59.87
11017;BME280;54687;50.800;6.772;2023-03-20T04:25:17;61088.72;;;-144.06;59.93
11017;BME280;54687;50.800;6.772;2023-03-20T04:27:44;61101.28;;;-144.06;60.04
11017;BME280;54687;50.800;6.772;2023-03-20T04:30:12;61063.56;;;-144.06;60.05
11017;BME280;54687;50.800;6.772;2023-03-20T04:32:39;61097.09;;;-144.06;60.16
11017;BME280;54687;50.800;6.772;2023-03-20T04:35:06;61088.72;;;-144.06;59.87
11017;BME280;54687;50.800;6.772;2023-03-20T04:37:33;61080.34;;;-144.06;59.94
11017;BME280;54687;50.800;6.772;2023-03-20T04:40:00;61059.38;;;-144.06;60.06
11017;BME280;54687;50.800;6.772;2023-03-20T04:42:27;61109.69;;;-144.06;60.13
11017;BME280;54687;50.800;6.772;2023-03-20T04:44:54;61084.53;;;-144.06;60.35
11017;BME280;54687;50.800;6.772;2023-03-20T04:47:23;61038.41;;;-144.06;60.11
11017;BME280;54687;50.800;6.772;2023-03-20T04:49:49;61105.50;;;-144.06;60.14
11017;BME280;54687;50.800;6.772;2023-03-20T04:52:16;61071.94;;;-144.06;60.43
11017;BME280;54687;50.800;6.772;2023-03-20T04:54:43;61080.34;;;-144.06;60.15
11017;BME280;54687;50.800;6.772;2023-03-20T04:57:09;61113.88;;;-144.06;60.21
11017;BME280;54687;50.800;6.772;2023-03-20T04:59:36;61059.38;;;-144.06;60.17
11017;BME280;54687;50.800;6.772;2023-03-20T05:02:03;61095.00;;;-144.06;60.01
11017;BME280;54687;50.800;6.772;2023-03-20T05:04:31;61057.28;;;-144.06;60.22
11017;BME280;54687;50.800;6.772;2023-03-20T05:06:58;61086.63;;;-144.06;60.12
11017;BME280;54687;50.800;6.772;2023-03-20T05:09:25;61097.09;;;-144.06;60.09
11017;BME280;54687;50.800;6.772;2023-03-20T05:11:51;61113.88;;;-144.06;60.13
11017;BME280;54687;50.800;6.772;2023-03-20T05:14:18;61038.41;;;-144.06;60.01
11017;BME280;54687;50.800;6.772;2023-03-20T05:16:45;61086.63;;;-144.06;60.28
11017;BME280;54687;50.800;6.772;2023-03-20T05:19:11;61124.34;;;-144.06;60.18
11017;BME280;54687;50.800;6.772;2023-03-20T05:21:39;61113.88;;;-144.06;60.20
11017;BME280;54687;50.800;6.772;2023-03-20T05:24:06;61084.53;;;-144.06;60.07
11017;BME280;54687;50.800;6.772;2023-03-20T05:26:33;61105.50;;;-144.06;60.26
11017;BME280;54687;50.800;6.772;2023-03-20T05:28:59;61092.91;;;-144.06;60.29
11017;BME280;54687;50.800;6.772;2023-03-20T05:31:26;61076.13;;;-144.06;60.64
11017;BME280;54687;50.800;6.772;2023-03-20T05:33:52;61063.56;;;-144.06;60.64
11017;BME280;54687;50.800;6.772;2023-03-20T05:36:19;61076.13;;;-144.06;60.63
11017;BME280;54687;50.800;6.772;2023-03-20T05:38:47;61107.59;;;-144.06;60.89
11017;BME280;54687;50.800;6.772;2023-03-20T05:41:13;61084.53;;;-144.06;60.81
11017;BME280;54687;50.800;6.772;2023-03-20T05:43:40;61055.19;;;-144.06;60.95
11017;BME280;54687;50.800;6.772;2023-03-20T05:46:07;61084.53;;;-144.06;60.98
11017;BME280;54687;50.800;6.772;2023-03-20T05:48:34;61042.59;;;-144.06;60.99
11017;BME280;54687;50.800;6.772;2023-03-20T05:51:01;61063.56;;;-144.06;61.05
11017;BME280;54687;50.800;6.772;2023-03-20T05:53:27;61090.81;;;-144.06;60.85
11017;BME280;54687;50.800;6.772;2023-03-20T05:55:55;61101.28;;;-144.06;60.83
11017;BME280;54687;50.800;6.772;2023-03-20T05:58:22;61084.53;;;-144.06;61.19
11017;BME280;54687;50.800;6.772;2023-03-20T06:00:48;61084.53;;;-144.06;60.80
11017;BME280;54687;50.800;6.772;2023-03-20T06:03:15;61063.56;;;-144.06;60.88
11017;BME280;54687;50.800;6.772;2023-03-20T06:05:43;61082.44;;;-144.06;60.75
11017;BME280;54687;50.800;6.772;2023-03-20T06:08:09;61090.81;;;-144.06;60.53
11017;BME280;54687;50.800;6.772;2023-03-20T06:10:36;61120.16;;;-144.06;60.53
11017;BME280;54687;50.800;6.772;2023-03-20T06:13:04;61107.59;;;-144.06;60.43
11017;BME280;54687;50.800;6.772;2023-03-20T06:15:30;61101.28;;;-144.06;60.13
11017;BME280;54687;50.800;6.772;2023-03-20T06:17:57;61051.00;;;-144.06;60.03
11017;BME280;54687;50.800;6.772;2023-03-20T06:20:24;61084.53;;;-144.06;59.94
11017;BME280;54687;50.800;6.772;2023-03-20T06:22:51;61067.75;;;-144.06;59.79
11017;BME280;54687;50.800;6.772;2023-03-20T06:25:18;61118.06;;;-144.06;59.93
11017;BME280;54687;50.800;6.772;2023-03-20T06:27:45;61088.72;;;-144.06;59.53
11017;BME280;54687;50.800;6.772;2023-03-20T06:30:16;61095.00;;;-144.06;59.50
11017;BME280;54687;50.800;6.772;2023-03-20T06:32:42;61076.13;;;-144.06;59.31
11017;BME280;54687;50.800;6.772;2023-03-20T06:35:10;61084.53;;;-144.06;59.08
11017;BME280;54687;50.800;6.772;2023-03-20T06:37:38;61084.53;;;-144.06;58.83
11017;BME280;54687;50.800;6.772;2023-03-20T06:40:06;61063.56;;;-144.06;58.56
11017;BME280;54687;50.800;6.772;2023-03-20T06:42:32;61086.63;;;-144.06;58.45
11017;BME280;54687;50.800;6.772;2023-03-20T06:44:59;61071.94;;;-144.06;58.22
11017;BME280;54687;50.800;6.772;2023-03-20T06:47:27;61071.94;;;-144.06;57.93
11017;BME280;54687;50.800;6.772;2023-03-20T06:49:53;61105.50;;;-144.06;57.88
11017;BME280;54687;50.800;6.772;2023-03-20T06:52:20;61084.53;;;-144.06;57.66
11017;BME280;54687;50.800;6.772;2023-03-20T06:54:47;61076.13;;;-144.06;57.33
11017;BME280;54687;50.800;6.772;2023-03-20T06:57:15;61048.88;;;-144.06;57.56
11017;BME280;54687;50.800;6.772;2023-03-20T06:59:42;61084.53;;;-144.06;57.56
11017;BME280;54687;50.800;6.772;2023-03-20T07:02:09;61080.34;;;-144.06;57.51
11017;BME280;54687;50.800;6.772;2023-03-20T07:04:38;61055.19;;;-144.06;57.56
11017;BME280;54687;50.800;6.772;2023-03-20T07:07:05;61067.75;;;-144.06;57.32
11017;BME280;54687;50.800;6.772;2023-03-20T07:09:31;61076.13;;;-144.06;57.02
11017;BME280;54687;50.800;6.772;2023-03-20T07:11:58;61046.78;;;-144.06;56.89
11017;BME280;54687;50.800;6.772;2023-03-20T07:14:25;61051.00;;;-144.06;56.46
11017;BME280;54687;50.800;6.772;2023-03-20T07:16:52;61101.28;;;-144.06;56.05
11017;BME280;54687;50.800;6.772;2023-03-20T07:19:19;61101.28;;;-144.06;55.88
11017;BME280;54687;50.800;6.772;2023-03-20T07:21:47;61063.56;;;-144.06;55.60
11017;BME280;54687;50.800;6.772;2023-03-20T07:24:13;61088.72;;;-144.06;54.99
11017;BME280;54687;50.800;6.772;2023-03-20T07:26:42;61042.59;;;-144.06;55.02
11017;BME280;54687;50.800;6.772;2023-03-20T07:29:08;61088.72;;;-144.06;54.36
11017;BME280;54687;50.800;6.772;2023-03-20T07:31:35;61038.41;;;-144.06;54.34
11017;BME280;54687;50.800;6.772;2023-03-20T07:34:02;61084.53;;;-144.06;54.51
11017;BME280;54687;50.800;6.772;2023-03-20T07:36:28;61025.84;;;-144.06;54.02
11017;BME280;54687;50.800;6.772;2023-03-20T07:38:56;61027.94;;;-144.06;53.80
11017;BME280;54687;50.800;6.772;2023-03-20T07:41:23;61030.03;;;-144.06;53.64
11017;BME280;54687;50.800;6.772;2023-03-20T07:43:49;61076.13;;;-144.06;53.67
11017;BME280;54687;50.800;6.772;2023-03-20T07:46:16;61061.47;;;-144.06;53.71
11017;BME280;54687;50.800;6.772;2023-03-20T07:48:44;61038.41;;;-144.06;53.77
11017;BME280;54687;50.800;6.772;2023-03-20T07:51:11;61076.13;;;-144.06;53.72
11017;BME280;54687;50.800;6.772;2023-03-20T07:53:37;61051.00;;;-144.06;53.58
11017;BME280;54687;50.800;6.772;2023-03-20T07:56:08;61071.94;;;-144.06;53.61
11017;BME280;54687;50.800;6.772;2023-03-20T07:58:35;61046.78;;;-144.06;53.09
11017;BME280;54687;50.800;6.772;2023-03-20T08:01:02;61067.75;;;-144.06;52.31
11017;BME280;54687;50.800;6.772;2023-03-20T08:03:29;61034.22;;;-144.06;52.33
11017;BME280;54687;50.800;6.772;2023-03-20T08:05:56;61038.41;;;-144.06;52.34
11017;BME280;54687;50.800;6.772;2023-03-20T08:08:22;61015.34;;;-144.06;51.38
11017;BME280;54687;50.800;6.772;2023-03-20T08:10:50;61021.63;;;-144.06;51.25
11017;BME280;54687;50.800;6.772;2023-03-20T08:13:18;61034.22;;;-144.06;50.88
11017;BME280;54687;50.800;6.772;2023-03-20T08:15:45;61051.00;;;-144.06;50.66
11017;BME280;54687;50.800;6.772;2023-03-20T08:18:12;61080.34;;;-144.06;49.76
11017;BME280;54687;50.800;6.772;2023-03-20T08:20:38;61025.84;;;-144.06;49.91
11017;BME280;54687;50.800;6.772;2023-03-20T08:23:05;61046.78;;;-144.06;49.59
11017;BME280;54687;50.800;6.772;2023-03-20T08:25:32;61038.41;;;-144.06;49.54
11017;BME280;54687;50.800;6.772;2023-03-20T08:27:59;61053.09;;;-144.06;49.54
11017;BME280;54687;50.800;6.772;2023-03-20T08:30:27;60983.91;;;-144.06;48.94
11017;BME280;54687;50.800;6.772;2023-03-20T08:32:54;61013.25;;;-144.06;48.96
11017;BME280;54687;50.800;6.772;2023-03-20T08:35:22;61030.03;;;-144.06;48.89
11017;BME280;54687;50.800;6.772;2023-03-20T08:37:49;61006.97;;;-144.06;48.58
11017;BME280;54687;50.800;6.772;2023-03-20T08:40:16;61053.09;;;-144.06;48.47
11017;BME280;54687;50.800;6.772;2023-03-20T08:42:42;61000.69;;;-144.06;47.75
11017;BME280;54687;50.800;6.772;2023-03-20T08:45:10;61002.78;;;-144.06;47.51
11017;BME280;54687;50.800;6.772;2023-03-20T08:47:38;60992.28;;;-144.06;47.29
11017;BME280;54687;50.800;6.772;2023-03-20T08:50:05;60998.59;;;-144.06;47.04
11017;BME280;54687;50.800;6.772;2023-03-20T08:52:32;61009.06;;;-144.06;46.94
11017;BME280;54687;50.800;6.772;2023-03-20T08:54:59;61006.97;;;-144.06;46.84
11017;BME280;54687;50.800;6.772;2023-03-20T08:57:26;61004.88;;;-144.06;46.31
11017;BME280;54687;50.800;6.772;2023-03-20T08:59:52;61013.25;;;-144.06;46.62
11017;BME280;54687;50.800;6.772;2023-03-20T09:02:19;60967.13;;;-144.06;46.50
11017;BME280;54687;50.800;6.772;2023-03-20T09:04:47;61000.69;;;-144.06;45.59
11017;BME280;54687;50.800;6.772;2023-03-20T09:07:13;60969.22;;;-144.06;45.55
11017;BME280;54687;50.800;6.772;2023-03-20T09:09:40;60977.63;;;-144.06;45.01
11017;BME280;54687;50.800;6.772;2023-03-20T09:12:07;61002.78;;;-144.06;45.03
11017;BME280;54687;50.800;6.772;2023-03-20T09:14:33;60988.09;;;-144.06;44.54
11017;BME280;54687;50.800;6.772;2023-03-20T09:17:00;60946.19;;;-144.06;44.51
11017;BME280;54687;50.800;6.772;2023-03-20T09:19:27;60962.94;;;-144.06;43.17
11017;BME280;54687;50.800;6.772;2023-03-20T09:21:55;60992.28;;;-144.06;43.24
11017;BME280;54687;50.800;6.772;2023-03-20T09:24:22;60983.91;;;-144.06;43.46
11017;BME280;54687;50.800;6.772;2023-03-20T09:26:48;60967.13;;;-144.06;43.30
11017;BME280;54687;50.800;6.772;2023-03-20T09:29:16;60950.38;;;-144.06;43.28
11017;BME280;54687;50.800;6.772;2023-03-20T09:31:44;60986.00;;;-144.06;43.66
11017;BME280;54687;50.800;6.772;2023-03-20T09:34:11;60950.38;;;-144.06;43.42
11017;BME280;54687;50.800;6.772;2023-03-20T09:36:37;60965.03;;;-144.06;43.51
11017;BME280;54687;50.800;6.772;2023-03-20T09:39:05;60941.97;;;-144.06;43.84
11017;BME280;54687;50.800;6.772;2023-03-20T09:41:33;60996.50;;;-144.06;43.59
11017;BME280;54687;50.800;6.772;2023-03-20T09:44:09;60941.97;;;-144.06;43.75
11017;BME280;54687;50.800;6.772;2023-03-20T09:46:50;60939.88;;;-144.06;43.71
11017;BME280;54687;50.800;6.772;2023-03-20T09:49:27;60954.56;;;-144.06;43.53
11017;BME280;54687;50.800;6.772;2023-03-20T09:51:58;60946.19;;;-144.06;43.17
11017;BME280;54687;50.800;6.772;2023-03-20T09:54:28;60933.59;;;-144.06;43.20
11017;BME280;54687;50.800;6.772;2023-03-20T09:57:00;60956.66;;;-144.06;42.55
11017;BME280;54687;50.800;6.772;2023-03-20T09:59:29;60962.94;;;-144.06;42.64
11017;BME280;54687;50.800;6.772;2023-03-20T10:02:01;60969.22;;;-144.06;42.85
11017;BME280;54687;50.800;6.772;2023-03-20T10:04:30;60962.94;;;-144.06;42.15
11017;BME280;54687;50.800;6.772;2023-03-20T10:06:57;60912.63;;;-144.06;42.19
11017;BME280;54687;50.800;6.772;2023-03-20T10:09:27;60979.72;;;-144.06;42.51
11017;BME280;54687;50.800;6.772;2023-03-20T10:12:09;60931.50;;;-144.06;42.35
11017;BME280;54687;50.800;6.772;2023-03-20T10:14:52;60954.56;;;-144.06;40.72
11017;BME280;54687;50.800;6.772;2023-03-20T10:17:29;60971.34;;;-144.06;41.13
11017;BME280;54687;50.800;6.772;2023-03-20T10:20:09;60950.38;;;-144.06;40.64
11017;BME280;54687;50.800;6.772;2023-03-20T10:22:38;60969.22;;;-144.06;40.13
11017;BME280;54687;50.800;6.772;2023-03-20T10:25:17;60921.03;;;-144.06;39.77
11017;BME280;54687;50.800;6.772;2023-03-20T10:27:48;60916.84;;;-144.06;39.56
11017;BME280;54687;50.800;6.772;2023-03-20T10:30:25;60965.03;;;-144.06;39.92
11017;BME280;54687;50.800;6.772;2023-03-20T10:33:02;60912.63;;;-144.06;39.49
11017;BME280;54687;50.800;6.772;2023-03-20T10:35:38;60904.25;;;-144.06;39.98
11017;BME280;54687;50.800;6.772;2023-03-20T10:38:19;60952.47;;;-144.06;39.52
11017;BME280;54687;50.800;6.772;2023-03-20T10:40:50;60908.44;;;-144.06;39.61
11017;BME280;54687;50.800;6.772;2023-03-20T10:43:20;60927.31;;;-144.06;40.05
11017;BME280;54687;50.800;6.772;2023-03-20T10:45:50;60988.09;;;-144.06;40.15
11017;BME280;54687;50.800;6.772;2023-03-20T10:48:22;60941.97;;;-144.06;40.26
11017;BME280;54687;50.800;6.772;2023-03-20T10:50:55;60946.19;;;-144.06;40.46
11017;BME280;54687;50.800;6.772;2023-03-20T10:53:27;60908.44;;;-144.06;40.30
11017;BME280;54687;50.800;6.772;2023-03-20T10:55:59;60969.22;;;-144.06;40.13
11017;BME280;54687;50.800;6.772;2023-03-20T10:58:30;60954.56;;;-144.06;40.29
11017;BME280;54687;50.800;6.772;2023-03-20T11:00:59;60954.56;;;-144.06;40.26
11017;BME280;54687;50.800;6.772;2023-03-20T11:03:28;60929.41;;;-144.06;40.47
11017;BME280;54687;50.800;6.772;2023-03-20T11:05:58;60929.41;;;-144.06;40.39
11017;BME280;54687;50.800;6.772;2023-03-20T11:08:30;60952.47;;;-144.06;40.86
11017;BME280;54687;50.800;6.772;2023-03-20T11:11:02;60935.69;;;-144.06;40.94
11017;BME280;54687;50.800;6.772;2023-03-20T11:13:31;60939.88;;;-144.06;41.18
11017;BME280;54687;50.800;6.772;2023-03-20T11:16:09;60946.19;;;-144.06;40.44
11017;BME280;54687;50.800;6.772;2023-03-20T11:18:36;60992.28;;;-144.06;40.24
11017;BME280;54687;50.800;6.772;2023-03-20T11:21:09;60960.84;;;-144.06;41.01
11017;BME280;54687;50.800;6.772;2023-03-20T11:23:39;60960.84;;;-144.06;40.62
11017;BME280;54687;50.800;6.772;2023-03-20T11:26:11;60975.53;;;-144.06;40.99
11017;BME280;54687;50.800;6.772;2023-03-20T11:28:45;60950.38;;;-144.06;41.44
11017;BME280;54687;50.800;6.772;2023-03-20T11:31:16;60996.50;;;-144.06;41.01
11017;BME280;54687;50.800;6.772;2023-03-20T11:33:45;60937.78;;;-144.06;41.12
11017;BME280;54687;50.800;6.772;2023-03-20T11:36:21;60979.72;;;-144.06;40.73
11017;BME280;54687;50.800;6.772;2023-03-20T11:38:49;60983.91;;;-144.06;40.79
11017;BME280;54687;50.800;6.772;2023-03-20T11:41:21;60988.09;;;-144.06;40.70
11017;BME280;54687;50.800;6.772;2023-03-20T11:43:48;60990.19;;;-144.06;40.05
11017;BME280;54687;50.800;6.772;2023-03-20T11:46:15;60948.28;;;-144.06;39.46
11017;BME280;54687;50.800;6.772;2023-03-20T11:48:44;60962.94;;;-144.06;39.66
11017;BME280;54687;50.800;6.772;2023-03-20T11:51:14;60952.47;;;-144.06;39.75
11017;BME280;54687;50.800;6.772;2023-03-20T11:53:57;60958.75;;;-144.06;38.41
11017;BME280;54687;50.800;6.772;2023-03-20T11:56:27;60960.84;;;-144.06;38.21
11017;BME280;54687;50.800;6.772;2023-03-20T11:58:57;60916.84;;;-144.06;38.54
11017;BME280;54687;50.800;6.772;2023-03-20T12:01:26;60935.69;;;-144.06;38.88
11017;BME280;54687;50.800;6.772;2023-03-20T12:04:00;60925.22;;;-144.06;38.68
11017;BME280;54687;50.800;6.772;2023-03-20T12:06:41;60935.69;;;-144.06;38.13
11017;BME280;54687;50.800;6.772;2023-03-20T12:09:14;60929.41;;;-144.06;38.54
11017;BME280;54687;50.800;6.772;2023-03-20T12:11:46;60933.59;;;-144.06;38.36
11017;BME280;54687;50.800;6.772;2023-03-20T12:14:20;60950.38;;;-144.06;38.31
11017;BME280;54687;50.800;6.772;2023-03-20T12:16:49;60937.78;;;-144.06;38.67
11017;BME280;54687;50.800;6.772;2023-03-20T12:19:21;60946.19;;;-144.06;39.05
11017;BME280;54687;50.800;6.772;2023-03-20T12:21:58;60950.38;;;-144.06;38.96
11017;BME280;54687;50.800;6.772;2023-03-20T12:24:32;60916.84;;;-144.06;39.73
11017;BME280;54687;50.800;6.772;2023-03-20T12:27:14;60935.69;;;-144.06;40.26
11017;BME280;54687;50.800;6.772;2023-03-20T12:29:46;60904.25;;;-144.06;40.81
11017;BME280;54687;50.800;6.772;2023-03-20T12:32:19;60958.75;;;-144.06;41.29
11017;BME280;54687;50.800;6.772;2023-03-20T12:34:52;60893.78;;;-144.06;40.78
11017;BME280;54687;50.800;6.772;2023-03-20T12:37:21;60925.22;;;-144.06;40.84
11017;BME280;54687;50.800;6.772;2023-03-20T12:39:50;60946.19;;;-144.06;40.99
11017;BME280;54687;50.800;6.772;2023-03-20T12:42:27;60912.63;;;-144.06;40.84
11017;BME280;54687;50.800;6.772;2023-03-20T12:45:04;60948.28;;;-144.06;40.97
11017;BME280;54687;50.800;6.772;2023-03-20T12:47:44;60929.41;;;-144.06;41.10
11017;BME280;54687;50.800;6.772;2023-03-20T12:50:20;60944.09;;;-144.06;41.07
11017;BME280;54687;50.800;6.772;2023-03-20T12:52:58;60948.28;;;-144.06;40.57
11017;BME280;54687;50.800;6.772;2023-03-20T12:55:34;60941.97;;;-144.06;39.81
11017;BME280;54687;50.800;6.772;2023-03-20T12:58:16;60925.22;;;-144.06;39.73